createdAt,value
2023-01-19T00:01:44.432Z,61.47
2023-01-19T00:04:12.354Z,61.41
2023-01-19T00:06:40.709Z,62.05
2023-01-19T00:09:08.524Z,61.60
2023-01-19T00:11:37.028Z,61.59
2023-01-19T00:14:05.509Z,61.31
2023-01-19T00:16:33.882Z,61.74
2023-01-19T00:19:01.826Z,61.65
2023-01-19T00:21:30.092Z,61.49
2023-01-19T00:23:57.961Z,61.36
2023-01-19T00:26:26.591Z,60.87
2023-01-19T00:28:54.343Z,60.97
2023-01-19T00:31:23.510Z,61.11
2023-01-19T00:33:53.038Z,61.58
2023-01-19T00:36:22.569Z,61.61
2023-01-19T00:38:50.975Z,61.43
2023-01-19T00:41:19.698Z,61.56
2023-01-19T00:43:47.452Z,61.05
2023-01-19T00:46:15.970Z,61.44
2023-01-19T00:48:44.039Z,61.82
2023-01-19T00:51:12.346Z,60.83
2023-01-19T00:53:40.170Z,61.93
2023-01-19T00:56:08.646Z,61.45
2023-01-19T00:58:36.545Z,61.88
2023-01-19T01:01:06.333Z,62.03
2023-01-19T01:03:34.599Z,61.34
2023-01-19T01:06:03.936Z,62.00
2023-01-19T01:08:32.299Z,61.41
2023-01-19T01:11:00.225Z,61.34
2023-01-19T01:13:28.941Z,61.63
2023-01-19T01:15:57.491Z,61.24
2023-01-19T01:18:26.557Z,61.48
2023-01-19T01:21:01.989Z,61.30
2023-01-19T01:23:30.377Z,61.39
2023-01-19T01:25:58.316Z,61.18
2023-01-19T01:28:27.409Z,61.59
2023-01-19T01:30:56.788Z,61.68
2023-01-19T01:33:40.718Z,61.94
2023-01-19T01:36:12.046Z,61.87
2023-01-19T01:38:41.807Z,61.22
2023-01-19T01:41:10.225Z,61.92
2023-01-19T01:43:44.769Z,61.42
2023-01-19T01:46:15.818Z,61.14
2023-01-19T01:48:50.395Z,61.14
2023-01-19T01:51:38.169Z,61.40
2023-01-19T01:54:09.561Z,61.13
2023-01-19T01:56:44.389Z,62.06
2023-01-19T01:59:26.244Z,61.79
2023-01-19T02:02:16.017Z,61.62
2023-01-19T02:04:58.956Z,61.28
2023-01-19T02:07:57.085Z,61.34
2023-01-19T02:10:44.267Z,61.07
2023-01-19T02:13:22.730Z,62.16
2023-01-19T02:15:56.504Z,60.38
2023-01-19T02:18:28.773Z,60.72
2023-01-19T02:21:00.643Z,60.63
2023-01-19T02:23:38.321Z,60.98
2023-01-19T02:26:09.981Z,61.09
2023-01-19T02:28:45.349Z,60.76
2023-01-19T02:31:15.441Z,60.56
2023-01-19T02:33:43.797Z,60.03
2023-01-19T02:36:15.551Z,60.55
2023-01-19T02:38:47.392Z,60.36
2023-01-19T02:41:20.647Z,60.45
2023-01-19T02:43:50.250Z,60.05
2023-01-19T02:46:18.731Z,59.30
2023-01-19T02:48:47.082Z,60.38
2023-01-19T02:51:21.635Z,59.29
2023-01-19T02:53:58.530Z,59.24
2023-01-19T02:56:50.905Z,59.60
2023-01-19T02:59:30.907Z,59.35
2023-01-19T03:02:29.844Z,59.74
2023-01-19T03:05:31.808Z,59.47
2023-01-19T03:08:34.835Z,59.28
2023-01-19T03:11:05.967Z,58.93
2023-01-19T03:13:46.263Z,59.14
2023-01-19T03:16:22.916Z,58.40
2023-01-19T03:18:59.050Z,59.40
2023-01-19T03:21:29.284Z,60.10
2023-01-19T03:24:03.373Z,59.77
2023-01-19T03:26:36.892Z,59.69
2023-01-19T03:29:07.671Z,59.42
2023-01-19T03:31:37.885Z,58.95
2023-01-19T03:34:11.072Z,59.09
2023-01-19T03:36:46.524Z,59.74
2023-01-19T03:39:21.945Z,59.19
2023-01-19T03:41:54.797Z,59.91
2023-01-19T03:44:26.426Z,59.74
2023-01-19T03:46:57.231Z,59.52
2023-01-19T03:49:26.214Z,59.64
2023-01-19T03:51:57.358Z,58.95
2023-01-19T03:54:26.103Z,59.65
2023-01-19T03:56:54.392Z,59.26
2023-01-19T03:59:22.739Z,59.27
2023-01-19T04:01:50.684Z,59.02
2023-01-19T04:04:19.067Z,59.04
2023-01-19T04:06:47.030Z,59.95
2023-01-19T04:09:15.464Z,59.66
2023-01-19T04:11:43.442Z,59.90
2023-01-19T04:14:11.734Z,59.23
2023-01-19T04:16:39.628Z,59.29
2023-01-19T04:19:07.794Z,59.50
2023-01-19T04:21:36.264Z,59.97
2023-01-19T04:24:04.897Z,59.80
2023-01-19T04:26:32.709Z,60.26
2023-01-19T04:29:01.088Z,60.58
2023-01-19T04:31:29.236Z,59.43
2023-01-19T04:33:57.875Z,60.63
2023-01-19T04:36:25.759Z,59.09
2023-01-19T04:38:54.536Z,59.43
2023-01-19T04:41:22.358Z,60.45
2023-01-19T04:43:52.160Z,60.81
2023-01-19T04:46:20.273Z,61.28
2023-01-19T04:48:48.517Z,60.38
2023-01-19T04:51:16.530Z,59.81
2023-01-19T04:53:44.844Z,59.88
2023-01-19T04:56:12.786Z,59.35
2023-01-19T04:58:43.779Z,59.69
2023-01-19T05:01:11.747Z,59.36
2023-01-19T05:03:41.321Z,58.99
2023-01-19T05:06:09.308Z,59.01
2023-01-19T05:08:37.804Z,59.42
2023-01-19T05:11:06.079Z,58.96
2023-01-19T05:13:35.737Z,58.28
2023-01-19T05:16:04.074Z,58.75
2023-01-19T05:18:36.334Z,58.73
2023-01-19T05:21:05.017Z,58.93
2023-01-19T05:23:33.919Z,58.13
2023-01-19T05:26:03.534Z,58.38
2023-01-19T05:28:33.642Z,57.60
2023-01-19T05:31:01.867Z,56.94
2023-01-19T05:33:30.654Z,57.60
2023-01-19T05:35:58.844Z,57.67
2023-01-19T05:38:35.314Z,57.10
2023-01-19T05:41:04.224Z,57.74
2023-01-19T05:43:32.411Z,58.01
2023-01-19T05:46:00.675Z,58.51
2023-01-19T05:48:28.857Z,58.27
2023-01-19T05:51:00.491Z,58.11
2023-01-19T05:53:29.209Z,57.85
2023-01-19T05:56:05.877Z,57.89
2023-01-19T05:58:35.735Z,57.67
2023-01-19T06:01:05.930Z,57.28
2023-01-19T06:03:35.904Z,56.92
2023-01-19T06:06:04.416Z,57.45
2023-01-19T06:08:33.183Z,57.82
2023-01-19T06:11:01.135Z,57.74
2023-01-19T06:13:29.372Z,57.35
2023-01-19T06:16:00.404Z,57.24
2023-01-19T06:18:29.619Z,57.42
2023-01-19T06:21:00.094Z,57.59
2023-01-19T06:23:31.479Z,57.09
2023-01-19T06:25:59.581Z,56.85
2023-01-19T06:28:28.491Z,57.54
2023-01-19T06:30:57.490Z,57.45
2023-01-19T06:33:27.856Z,57.68
2023-01-19T06:35:56.948Z,57.23
2023-01-19T06:38:25.529Z,57.45
2023-01-19T06:40:58.763Z,58.32
2023-01-19T06:43:27.635Z,58.45
2023-01-19T06:45:56.519Z,58.52
2023-01-19T06:48:25.199Z,58.04
2023-01-19T06:50:53.059Z,57.52
2023-01-19T06:53:22.697Z,57.40
2023-01-19T06:55:50.911Z,57.27
2023-01-19T06:58:19.835Z,57.08
2023-01-19T07:00:47.686Z,56.94
2023-01-19T07:03:20.874Z,57.07
2023-01-19T07:05:54.464Z,57.81
2023-01-19T07:08:23.751Z,57.07
2023-01-19T07:11:26.361Z,57.33
2023-01-19T07:13:41.505Z,56.45
2023-01-19T07:16:12.246Z,56.67
2023-01-19T07:18:41.584Z,56.98
2023-01-19T07:21:09.848Z,57.02
2023-01-19T07:23:38.908Z,57.69
2023-01-19T07:26:06.881Z,57.59
2023-01-19T07:28:35.429Z,56.62
2023-01-19T07:31:03.968Z,56.65
2023-01-19T07:33:32.264Z,55.93
2023-01-19T07:36:00.435Z,55.83
2023-01-19T07:38:28.729Z,55.71
2023-01-19T07:41:07.718Z,55.82
2023-01-19T07:43:36.204Z,55.84
2023-01-19T07:46:06.557Z,55.35
2023-01-19T07:48:35.448Z,55.13
2023-01-19T07:51:18.327Z,55.03
2023-01-19T07:53:46.849Z,55.34
2023-01-19T07:56:14.963Z,54.85
2023-01-19T07:58:43.384Z,54.75
2023-01-19T08:01:13.399Z,55.04
2023-01-19T08:03:42.744Z,55.09
2023-01-19T08:06:24.108Z,54.59
2023-01-19T08:08:53.207Z,54.53
2023-01-19T08:11:21.097Z,54.64
2023-01-19T08:13:49.545Z,54.68
2023-01-19T08:16:17.539Z,54.53
2023-01-19T08:18:46.443Z,54.21
2023-01-19T08:21:15.362Z,54.50
2023-01-19T08:23:43.953Z,54.92
2023-01-19T08:26:27.628Z,55.40
2023-01-19T08:28:58.140Z,55.95
2023-01-19T08:31:26.939Z,54.45
2023-01-19T08:33:55.383Z,54.62
2023-01-19T08:36:25.439Z,55.11
2023-01-19T08:38:53.830Z,54.90
2023-01-19T08:41:22.603Z,54.29
2023-01-19T08:43:51.137Z,54.77
2023-01-19T08:46:21.566Z,54.84
2023-01-19T08:48:50.972Z,54.83
2023-01-19T08:51:19.795Z,55.03
2023-01-19T08:53:48.061Z,54.89
2023-01-19T08:56:16.337Z,54.17
2023-01-19T08:58:51.200Z,54.23
2023-01-19T09:01:24.515Z,53.86
2023-01-19T09:03:53.738Z,53.11
2023-01-19T09:06:21.704Z,53.60
2023-01-19T09:08:50.250Z,53.49
2023-01-19T09:11:19.009Z,52.72
2023-01-19T09:13:47.229Z,52.58
2023-01-19T09:16:16.220Z,53.79
2023-01-19T09:18:46.236Z,53.08
2023-01-19T09:21:15.337Z,52.79
2023-01-19T09:23:43.769Z,52.98
2023-01-19T09:26:12.119Z,51.57
2023-01-19T09:28:40.331Z,50.94
2023-01-19T09:31:09.459Z,50.75
2023-01-19T09:33:37.997Z,51.40
2023-01-19T09:36:06.449Z,50.04
2023-01-19T09:38:34.926Z,50.04
2023-01-19T09:41:04.585Z,50.43
2023-01-19T09:43:43.315Z,50.30
2023-01-19T09:46:14.566Z,50.72
2023-01-19T09:48:53.314Z,50.98
2023-01-19T09:51:28.789Z,50.95
2023-01-19T09:54:21.128Z,50.51
2023-01-19T09:56:52.419Z,50.18
2023-01-19T09:59:28.681Z,49.53
2023-01-19T10:02:20.894Z,50.47
2023-01-19T10:05:04.584Z,50.35
2023-01-19T10:07:55.680Z,50.37
2023-01-19T10:10:29.075Z,49.25
2023-01-19T10:13:26.118Z,49.68
2023-01-19T10:16:31.869Z,50.07
2023-01-19T10:19:23.855Z,49.90
2023-01-19T10:21:56.130Z,49.97
2023-01-19T10:24:38.946Z,50.08
2023-01-19T10:27:18.617Z,49.58
2023-01-19T10:29:47.053Z,49.35
2023-01-19T10:32:22.492Z,49.50
2023-01-19T10:34:51.115Z,49.90
2023-01-19T10:37:25.246Z,50.15
2023-01-19T10:39:56.249Z,51.58
2023-01-19T10:42:29.590Z,51.07
2023-01-19T10:44:58.946Z,51.50
2023-01-19T10:47:39.978Z,50.58
2023-01-19T10:50:23.606Z,52.41
2023-01-19T10:52:54.842Z,53.69
2023-01-19T10:55:32.185Z,54.70
2023-01-19T10:58:00.803Z,55.17
2023-01-19T11:00:38.192Z,56.12
2023-01-19T11:03:29.496Z,56.10
2023-01-19T11:06:19.406Z,56.18
2023-01-19T11:08:51.647Z,56.26
2023-01-19T11:11:21.568Z,55.80
2023-01-19T11:14:11.510Z,55.42
2023-01-19T11:16:40.380Z,55.31
2023-01-19T11:19:20.286Z,55.28
2023-01-19T11:21:48.338Z,54.24
2023-01-19T11:24:17.176Z,54.04
2023-01-19T11:26:48.528Z,52.54
2023-01-19T11:29:23.833Z,52.07
2023-01-19T11:31:53.685Z,51.57
2023-01-19T11:34:40.108Z,51.03
2023-01-19T11:37:31.919Z,51.87
2023-01-19T11:40:04.470Z,52.01
2023-01-19T11:42:34.688Z,52.01
2023-01-19T11:45:23.526Z,52.22
2023-01-19T11:47:52.924Z,53.01
2023-01-19T11:50:32.269Z,53.05
2023-01-19T11:53:07.813Z,53.54
2023-01-19T11:56:01.104Z,53.78
2023-01-19T11:58:30.658Z,53.79
2023-01-19T12:01:14.748Z,55.10
2023-01-19T12:04:06.128Z,54.24
2023-01-19T12:06:48.067Z,55.00
2023-01-19T12:09:24.649Z,54.07
2023-01-19T12:11:56.131Z,55.03
2023-01-19T12:14:32.297Z,54.91
2023-01-19T12:17:04.695Z,54.68
2023-01-19T12:19:56.515Z,54.00
2023-01-19T12:22:28.889Z,54.50
2023-01-19T12:25:06.381Z,55.08
2023-01-19T12:27:34.604Z,54.54
2023-01-19T12:30:06.429Z,54.60
2023-01-19T12:32:37.275Z,55.35
2023-01-19T12:35:05.826Z,55.25
2023-01-19T12:37:41.958Z,54.90
2023-01-19T12:40:37.825Z,56.10
2023-01-19T12:43:06.460Z,54.87
2023-01-19T12:45:36.596Z,55.40
2023-01-19T12:48:05.724Z,55.21
2023-01-19T12:50:38.125Z,55.31
2023-01-19T12:53:19.383Z,54.82
2023-01-19T12:56:00.317Z,54.68
2023-01-19T12:58:29.207Z,55.15
2023-01-19T13:01:21.406Z,54.92
2023-01-19T13:04:09.746Z,55.46
2023-01-19T13:06:49.941Z,54.80
2023-01-19T13:09:33.406Z,55.58
2023-01-19T13:12:19.614Z,55.70
2023-01-19T13:14:48.481Z,55.87
2023-01-19T13:17:32.178Z,55.28
2023-01-19T13:20:25.074Z,56.00
2023-01-19T13:23:09.773Z,56.18
2023-01-19T13:25:43.945Z,55.70
2023-01-19T13:28:16.639Z,55.25
2023-01-19T13:30:58.480Z,55.70
2023-01-19T13:33:30.489Z,55.16
2023-01-19T13:35:59.465Z,55.45
2023-01-19T13:38:29.016Z,56.18
2023-01-19T13:41:02.121Z,55.86
2023-01-19T13:43:38.097Z,55.98
2023-01-19T13:46:07.017Z,55.76
2023-01-19T13:48:34.980Z,55.66
2023-01-19T13:51:17.741Z,56.94
2023-01-19T13:53:59.135Z,56.51
2023-01-19T13:56:29.959Z,55.96
2023-01-19T13:59:12.129Z,56.13
2023-01-19T14:01:44.166Z,55.78
2023-01-19T14:04:29.037Z,55.75
2023-01-19T14:07:01.313Z,55.77
2023-01-19T14:09:30.743Z,55.52
2023-01-19T14:12:14.399Z,54.85
2023-01-19T14:14:49.890Z,55.30
2023-01-19T14:17:27.528Z,54.84
2023-01-19T14:19:57.586Z,55.19
2023-01-19T14:22:44.693Z,55.53
2023-01-19T14:25:28.282Z,55.87
2023-01-19T14:28:29.275Z,56.48
2023-01-19T14:31:17.465Z,56.39
2023-01-19T14:33:51.412Z,56.50
2023-01-19T14:36:34.437Z,56.46
2023-01-19T14:39:04.237Z,57.92
2023-01-19T14:41:53.277Z,57.77
2023-01-19T14:44:34.288Z,57.49
2023-01-19T14:47:03.618Z,57.39
2023-01-19T14:49:38.720Z,56.50
2023-01-19T14:52:23.682Z,57.34
2023-01-19T14:54:54.873Z,57.85
2023-01-19T14:57:22.993Z,57.97
2023-01-19T14:59:51.276Z,57.76
2023-01-19T15:02:19.797Z,57.56
2023-01-19T15:04:48.497Z,57.32
2023-01-19T15:07:20.301Z,58.14
2023-01-19T15:09:48.874Z,57.49
2023-01-19T15:12:18.842Z,57.28
2023-01-19T15:14:47.251Z,57.39
2023-01-19T15:17:25.910Z,57.90
2023-01-19T15:19:56.599Z,57.30
2023-01-19T15:22:30.418Z,57.71
2023-01-19T15:25:01.887Z,57.53
2023-01-19T15:27:30.847Z,58.16
2023-01-19T15:30:00.012Z,58.37
2023-01-19T15:32:28.104Z,58.10
2023-01-19T15:34:57.717Z,57.70
2023-01-19T15:37:25.747Z,57.76
2023-01-19T15:39:53.989Z,57.35
2023-01-19T15:42:21.927Z,56.67
2023-01-19T15:44:50.949Z,57.18
2023-01-19T15:47:18.884Z,57.05
2023-01-19T15:49:47.116Z,57.42
2023-01-19T15:52:17.027Z,57.72
2023-01-19T15:54:45.418Z,57.67
2023-01-19T15:57:13.253Z,57.03
2023-01-19T15:59:41.469Z,56.80
2023-01-19T16:02:10.127Z,57.16
2023-01-19T16:04:38.674Z,57.34
2023-01-19T16:07:06.516Z,57.54
2023-01-19T16:09:34.867Z,57.26
2023-01-19T16:12:02.717Z,57.04
2023-01-19T16:14:31.067Z,58.01
2023-01-19T16:17:00.381Z,57.83
2023-01-19T16:19:29.757Z,57.83
2023-01-19T16:21:57.856Z,58.11
2023-01-19T16:24:26.667Z,57.45
2023-01-19T16:26:54.832Z,57.33
2023-01-19T16:29:23.093Z,57.95
2023-01-19T16:31:52.095Z,57.98
2023-01-19T16:34:20.316Z,58.11
2023-01-19T16:36:49.289Z,58.00
2023-01-19T16:39:17.959Z,58.06
2023-01-19T16:41:46.297Z,58.27
2023-01-19T16:44:16.227Z,58.05
2023-01-19T16:46:46.249Z,58.75
2023-01-19T16:49:17.882Z,57.68
2023-01-19T16:51:46.309Z,57.87
2023-01-19T16:54:16.857Z,58.05
2023-01-19T16:56:44.857Z,57.54
2023-01-19T16:59:15.329Z,57.70
2023-01-19T17:01:45.525Z,57.98
2023-01-19T17:04:15.099Z,57.75
2023-01-19T17:06:43.419Z,57.74
2023-01-19T17:09:11.661Z,57.89
2023-01-19T17:11:43.012Z,58.05
2023-01-19T17:14:20.552Z,58.44
2023-01-19T17:16:49.646Z,58.74
2023-01-19T17:19:19.778Z,58.35
2023-01-19T17:21:50.697Z,58.48
2023-01-19T17:24:19.610Z,59.72
2023-01-19T17:26:49.031Z,59.34
2023-01-19T17:29:17.898Z,58.86
2023-01-19T17:31:47.038Z,58.67
2023-01-19T17:34:15.429Z,59.60
2023-01-19T17:36:43.573Z,58.70
2023-01-19T17:39:15.123Z,59.18
2023-01-19T17:41:43.354Z,58.51
2023-01-19T17:44:11.637Z,58.45
2023-01-19T17:46:40.082Z,58.97
2023-01-19T17:49:09.138Z,58.29
2023-01-19T17:51:37.432Z,58.84
2023-01-19T17:54:05.985Z,58.28
2023-01-19T17:56:37.881Z,58.63
2023-01-19T17:59:08.275Z,58.27
2023-01-19T18:01:40.262Z,58.64
2023-01-19T18:04:09.696Z,58.51
2023-01-19T18:06:38.752Z,59.81
2023-01-19T18:09:07.777Z,59.80
2023-01-19T18:11:36.089Z,59.36
2023-01-19T18:14:05.637Z,59.53
2023-01-19T18:16:33.623Z,59.17
2023-01-19T18:19:01.975Z,59.21
2023-01-19T18:21:30.707Z,58.93
2023-01-19T18:24:02.524Z,59.38
2023-01-19T18:26:31.832Z,59.30
2023-01-19T18:29:00.999Z,59.28
2023-01-19T18:31:29.818Z,59.08
2023-01-19T18:33:58.061Z,59.25
2023-01-19T18:36:26.121Z,59.26
2023-01-19T18:38:54.528Z,58.51
2023-01-19T18:41:22.586Z,58.73
2023-01-19T18:43:52.228Z,58.92
2023-01-19T18:46:21.520Z,59.04
2023-01-19T18:48:49.916Z,58.73
2023-01-19T18:51:19.453Z,58.38
2023-01-19T18:53:48.057Z,58.69
2023-01-19T18:56:16.641Z,58.55
2023-01-19T18:58:45.113Z,58.81
2023-01-19T19:01:36.841Z,58.60
2023-01-19T19:04:05.391Z,58.71
2023-01-19T19:06:33.514Z,58.59
2023-01-19T19:09:01.754Z,59.06
2023-01-19T19:11:29.652Z,59.88
2023-01-19T19:14:00.909Z,59.23
2023-01-19T19:16:30.262Z,58.66
2023-01-19T19:18:59.764Z,58.39
2023-01-19T19:21:28.066Z,58.62
2023-01-19T19:23:58.002Z,58.88
2023-01-19T19:26:28.392Z,58.80
2023-01-19T19:28:57.331Z,59.32
2023-01-19T19:31:27.851Z,58.67
2023-01-19T19:33:57.591Z,58.86
2023-01-19T19:36:27.296Z,59.64
2023-01-19T19:38:56.102Z,59.58
2023-01-19T19:41:29.064Z,59.31
2023-01-19T19:43:58.312Z,59.77
2023-01-19T19:46:27.342Z,59.87
2023-01-19T19:48:55.945Z,59.94
2023-01-19T19:51:29.796Z,59.75
2023-01-19T19:54:00.982Z,58.90
2023-01-19T19:56:31.169Z,59.48
2023-01-19T19:58:59.899Z,59.77
2023-01-19T20:01:32.888Z,60.22
2023-01-19T20:04:11.089Z,59.42
2023-01-19T20:06:42.736Z,59.35
2023-01-19T20:09:13.131Z,59.23
2023-01-19T20:11:43.221Z,59.14
2023-01-19T20:14:14.061Z,59.10
2023-01-19T20:16:42.759Z,58.95
2023-01-19T20:19:11.386Z,58.77
2023-01-19T20:21:43.966Z,58.52
2023-01-19T20:24:31.243Z,58.57
2023-01-19T20:26:59.274Z,58.86
2023-01-19T20:29:27.697Z,58.82
2023-01-19T20:31:56.694Z,58.71
2023-01-19T20:34:30.446Z,58.44
2023-01-19T20:37:00.933Z,58.42
2023-01-19T20:39:33.532Z,58.52
2023-01-19T20:42:02.385Z,58.72
2023-01-19T20:44:31.338Z,58.62
2023-01-19T20:47:02.306Z,58.96
2023-01-19T20:49:31.125Z,58.72
2023-01-19T20:51:59.578Z,59.51
2023-01-19T20:54:30.598Z,59.99
2023-01-19T20:57:00.359Z,59.90
2023-01-19T20:59:29.068Z,59.58
2023-01-19T21:01:57.383Z,59.74
2023-01-19T21:04:26.442Z,59.56
2023-01-19T21:06:54.676Z,59.18
2023-01-19T21:09:24.201Z,59.38
2023-01-19T21:11:52.758Z,59.57
2023-01-19T21:14:21.206Z,59.87
2023-01-19T21:16:49.433Z,60.16
2023-01-19T21:19:19.688Z,59.98
2023-01-19T21:21:47.820Z,60.19
2023-01-19T21:24:17.253Z,59.67
2023-01-19T21:26:46.558Z,59.70
2023-01-19T21:29:15.024Z,59.48
2023-01-19T21:31:43.655Z,59.80
2023-01-19T21:34:14.531Z,60.25
2023-01-19T21:36:45.006Z,60.00
2023-01-19T21:39:14.858Z,59.26
2023-01-19T21:41:45.434Z,59.00
2023-01-19T21:44:15.257Z,59.15
2023-01-19T21:46:43.739Z,59.09
2023-01-19T21:49:19.231Z,59.10
2023-01-19T21:51:48.504Z,58.92
2023-01-19T21:54:19.609Z,58.33
2023-01-19T21:56:49.935Z,58.41
2023-01-19T21:59:20.346Z,58.30
2023-01-19T22:01:48.893Z,57.97
2023-01-19T22:04:17.307Z,57.58
2023-01-19T22:06:45.604Z,58.45
2023-01-19T22:09:15.083Z,58.75
2023-01-19T22:11:43.426Z,58.22
2023-01-19T22:14:11.811Z,58.00
2023-01-19T22:16:40.536Z,57.60
2023-01-19T22:19:14.733Z,57.83
2023-01-19T22:21:44.351Z,57.54
2023-01-19T22:24:13.280Z,57.99
2023-01-19T22:26:42.470Z,57.67
2023-01-19T22:29:12.893Z,57.97
2023-01-19T22:31:41.254Z,57.96
2023-01-19T22:34:11.203Z,57.39
2023-01-19T22:36:40.226Z,56.95
2023-01-19T22:39:10.820Z,56.89
2023-01-19T22:41:48.378Z,57.22
2023-01-19T22:44:21.378Z,57.31
2023-01-19T22:46:52.597Z,57.06
2023-01-19T22:49:21.896Z,57.38
2023-01-19T22:51:50.006Z,56.76
2023-01-19T22:54:18.193Z,56.84
2023-01-19T22:56:46.374Z,57.24
2023-01-19T22:59:14.583Z,57.16
2023-01-19T23:01:44.336Z,57.18
2023-01-19T23:04:15.264Z,57.12
2023-01-19T23:06:43.741Z,57.18
2023-01-19T23:09:13.924Z,58.23
2023-01-19T23:11:51.629Z,59.46
2023-01-19T23:14:23.070Z,59.03
2023-01-19T23:16:51.643Z,59.20
2023-01-19T23:19:20.077Z,59.75
2023-01-19T23:21:52.851Z,59.75
2023-01-19T23:24:21.322Z,59.73
2023-01-19T23:26:50.373Z,59.21
2023-01-19T23:29:19.968Z,58.92
2023-01-19T23:31:49.502Z,58.66
2023-01-19T23:34:17.852Z,58.90
2023-01-19T23:36:46.137Z,57.94
2023-01-19T23:39:20.227Z,57.71
2023-01-19T23:41:49.631Z,58.45
2023-01-19T23:44:18.574Z,59.01
2023-01-19T23:46:46.708Z,59.50
2023-01-19T23:49:15.041Z,59.30
2023-01-19T23:51:43.262Z,59.30
2023-01-19T23:54:12.500Z,59.58
2023-01-19T23:56:40.852Z,59.44
2023-01-19T23:59:11.527Z,59.09
